createdAt,value
2022-08-17T00:02:27.013Z,27.42
2022-08-17T00:04:54.940Z,26.83
2022-08-17T00:07:21.898Z,27.17
2022-08-17T00:09:48.591Z,27.63
2022-08-17T00:12:43.284Z,27.95
2022-08-17T00:15:02.278Z,27.27
2022-08-17T00:17:29.038Z,26.55
2022-08-17T00:19:55.792Z,28.05
2022-08-17T00:22:32.564Z,29.05
2022-08-17T00:25:07.101Z,28.83
2022-08-17T00:27:33.974Z,28.50
2022-08-17T00:30:00.785Z,26.60
2022-08-17T00:33:10.813Z,27.27
2022-08-17T00:35:17.633Z,27.55
2022-08-17T00:37:44.349Z,27.73
2022-08-17T00:40:13.857Z,26.85
2022-08-17T00:42:41.524Z,26.52
2022-08-17T00:45:10.473Z,26.92
2022-08-17T00:47:37.256Z,27.13
2022-08-17T00:50:09.999Z,27.30
2022-08-17T00:52:42.970Z,26.30
2022-08-17T00:55:10.567Z,26.70
2022-08-17T00:57:42.450Z,25.60
2022-08-17T01:00:38.023Z,27.45
2022-08-17T01:03:15.275Z,27.55
2022-08-17T01:05:42.716Z,27.17
2022-08-17T01:08:15.197Z,26.15
2022-08-17T01:10:59.457Z,26.88
2022-08-17T01:13:40.800Z,27.10
2022-08-17T01:16:28.169Z,27.30
2022-08-17T01:18:59.236Z,27.35
2022-08-17T01:21:52.433Z,25.20
2022-08-17T01:24:19.113Z,25.73
2022-08-17T01:26:46.073Z,26.42
2022-08-17T01:29:13.794Z,26.25
2022-08-17T01:31:55.427Z,26.83
2022-08-17T01:34:24.757Z,27.20
2022-08-17T01:37:02.055Z,27.48
2022-08-17T01:39:36.033Z,26.70
2022-08-17T01:42:14.055Z,25.42
2022-08-17T01:44:41.240Z,26.33
2022-08-17T01:47:07.980Z,25.17
2022-08-17T01:49:34.741Z,25.40
2022-08-17T01:52:08.207Z,25.63
2022-08-17T01:54:36.300Z,27.15
2022-08-17T01:57:03.019Z,28.45
2022-08-17T01:59:29.727Z,27.65
2022-08-17T02:01:56.490Z,28.15
2022-08-17T02:04:23.277Z,28.20
2022-08-17T02:06:54.044Z,29.00
2022-08-17T02:09:29.586Z,27.75
2022-08-17T02:11:58.789Z,27.20
2022-08-17T02:14:25.920Z,26.92
2022-08-17T02:16:53.684Z,26.08
2022-08-17T02:19:21.707Z,27.25
2022-08-17T02:21:51.504Z,27.00
2022-08-17T02:25:00.095Z,27.25
2022-08-17T02:27:19.950Z,26.83
2022-08-17T02:29:46.760Z,26.83
2022-08-17T02:32:27.934Z,27.42
2022-08-17T02:34:56.647Z,27.30
2022-08-17T02:37:23.607Z,26.27
2022-08-17T02:39:50.394Z,25.63
2022-08-17T02:42:18.074Z,26.50
2022-08-17T02:44:45.892Z,26.27
2022-08-17T02:47:12.988Z,26.67
2022-08-17T02:49:39.647Z,26.65
2022-08-17T02:52:07.575Z,27.17
2022-08-17T02:54:41.491Z,28.13
2022-08-17T02:57:10.198Z,28.23
2022-08-17T02:59:38.312Z,28.67
2022-08-17T03:02:07.684Z,27.63
2022-08-17T03:04:35.130Z,27.83
2022-08-17T03:07:03.421Z,28.55
2022-08-17T03:09:30.500Z,27.42
2022-08-17T03:12:09.820Z,28.73
2022-08-17T03:14:46.006Z,28.08
2022-08-17T03:17:16.923Z,26.63
2022-08-17T03:40:57.713Z,25.67
2022-08-17T03:43:23.146Z,25.83
2022-08-17T03:46:10.885Z,26.88
2022-08-17T03:49:15.404Z,27.95
2022-08-17T03:52:00.595Z,26.83
2022-08-17T03:54:45.921Z,25.63
2022-08-17T03:57:13.192Z,28.08
2022-08-17T03:59:40.908Z,27.45
2022-08-17T04:02:24.799Z,28.08
2022-08-17T04:04:52.144Z,27.77
2022-08-17T04:07:20.638Z,26.52
2022-08-17T04:09:47.505Z,26.77
2022-08-17T04:12:16.381Z,27.17
2022-08-17T04:14:52.977Z,27.17
2022-08-17T04:17:26.893Z,27.40
2022-08-17T04:19:55.114Z,26.60
2022-08-17T04:22:33.318Z,28.75
2022-08-17T04:25:07.526Z,28.88
2022-08-17T04:27:34.432Z,28.13
2022-08-17T04:30:01.713Z,26.88
2022-08-17T04:33:05.011Z,28.27
2022-08-17T04:35:25.186Z,28.33
2022-08-17T04:37:52.295Z,27.70
2022-08-17T04:40:39.907Z,27.25
2022-08-17T04:43:18.764Z,27.27
2022-08-17T04:45:56.031Z,27.60
2022-08-17T04:48:33.366Z,28.48
2022-08-17T04:51:05.421Z,28.83
2022-08-17T04:53:32.509Z,28.23
2022-08-17T04:55:59.291Z,28.65
2022-08-17T04:58:26.045Z,26.88
2022-08-17T05:00:53.073Z,27.73
2022-08-17T05:03:19.902Z,26.92
2022-08-17T05:05:49.704Z,28.23
2022-08-17T05:08:19.477Z,29.13
2022-08-17T05:10:50.067Z,25.77
2022-08-17T05:13:20.104Z,27.20
2022-08-17T05:15:49.086Z,26.88
2022-08-17T05:18:17.321Z,25.98
2022-08-17T05:20:45.120Z,27.67
2022-08-17T05:23:16.027Z,30.90
2022-08-17T05:25:48.877Z,27.80
2022-08-17T05:28:23.476Z,27.73
2022-08-17T05:30:54.805Z,29.85
2022-08-17T05:33:30.788Z,29.70
2022-08-17T05:35:59.519Z,29.73
2022-08-17T05:38:29.306Z,30.70
2022-08-17T05:40:57.017Z,28.92
2022-08-17T05:43:30.153Z,30.15
2022-08-17T05:46:08.088Z,30.33
2022-08-17T05:48:58.900Z,29.42
2022-08-17T05:51:55.652Z,30.98
2022-08-17T05:54:34.218Z,30.48
2022-08-17T05:57:19.742Z,29.70
2022-08-17T06:00:30.714Z,29.92
2022-08-17T06:03:26.369Z,30.33
2022-08-17T06:06:05.123Z,29.10
2022-08-17T06:08:53.643Z,27.65
2022-08-17T06:11:38.849Z,28.10
2022-08-17T06:14:23.065Z,27.63
2022-08-17T06:16:58.388Z,28.83
2022-08-17T06:19:33.808Z,28.33
2022-08-17T06:22:02.663Z,28.25
2022-08-17T06:24:44.001Z,26.80
2022-08-17T06:27:31.186Z,28.45
2022-08-17T06:30:06.853Z,27.58
2022-08-17T06:32:38.494Z,30.02
2022-08-17T06:35:08.397Z,28.45
2022-08-17T06:38:37.046Z,29.63
2022-08-17T06:41:14.232Z,29.40
2022-08-17T06:44:07.373Z,29.27
2022-08-17T06:46:38.986Z,29.33
2022-08-17T06:49:55.274Z,28.33
2022-08-17T06:52:47.279Z,29.27
2022-08-17T06:55:21.254Z,30.55
2022-08-17T06:57:54.443Z,29.25
2022-08-17T07:00:26.455Z,28.98
2022-08-17T07:03:08.890Z,29.15
2022-08-17T07:05:42.304Z,28.67
2022-08-17T07:08:18.750Z,28.27
2022-08-17T07:10:55.566Z,27.30
2022-08-17T07:13:44.475Z,28.00
2022-08-17T07:16:24.999Z,26.45
2022-08-17T07:18:54.775Z,26.85
2022-08-17T07:21:48.116Z,27.05
2022-08-17T07:24:29.683Z,27.70
2022-08-17T07:27:08.028Z,27.95
2022-08-17T07:29:43.883Z,27.38
2022-08-17T07:32:14.154Z,27.45
2022-08-17T07:35:04.468Z,27.90
2022-08-17T07:37:33.334Z,29.50
2022-08-17T07:40:16.119Z,29.42
2022-08-17T07:43:05.579Z,29.52
2022-08-17T07:45:53.011Z,29.73
2022-08-17T07:48:25.888Z,29.15
2022-08-17T07:50:55.395Z,30.50
2022-08-17T07:53:24.883Z,29.77
2022-08-17T07:55:53.475Z,29.02
2022-08-17T07:58:23.636Z,29.20
2022-08-17T08:01:09.514Z,31.02
2022-08-17T08:03:42.670Z,28.95
2022-08-17T08:06:24.875Z,29.25
2022-08-17T08:09:00.359Z,29.10
2022-08-17T08:11:38.357Z,30.35
2022-08-17T08:14:33.551Z,30.40
2022-08-17T08:17:07.144Z,30.13
2022-08-17T08:19:36.289Z,31.27
2022-08-17T08:22:11.908Z,29.67
2022-08-17T08:24:41.619Z,30.45
2022-08-17T08:27:36.174Z,30.13
2022-08-17T08:30:10.253Z,31.47
2022-08-17T08:32:46.409Z,30.40
2022-08-17T08:35:41.546Z,30.45
2022-08-17T08:38:23.367Z,31.20
2022-08-17T08:41:11.653Z,30.77
2022-08-17T08:43:53.193Z,30.60
2022-08-17T08:46:36.357Z,30.38
2022-08-17T08:49:10.225Z,29.73
2022-08-17T08:51:55.695Z,29.73
2022-08-17T08:54:28.209Z,29.27
2022-08-17T08:57:24.195Z,29.90
2022-08-17T09:00:14.590Z,30.63
2022-08-17T09:03:08.289Z,31.50
2022-08-17T09:05:48.444Z,31.58
2022-08-17T09:08:23.249Z,30.83
2022-08-17T09:13:41.983Z,30.38
2022-08-17T09:16:17.334Z,31.80
2022-08-17T09:19:00.772Z,32.08
2022-08-17T09:21:52.579Z,31.45
2022-08-17T09:24:33.171Z,29.40
2022-08-17T09:27:04.561Z,30.23
2022-08-17T09:29:37.056Z,29.30
2022-08-17T09:32:32.871Z,30.08
2022-08-17T09:35:06.626Z,30.02
2022-08-17T09:37:52.151Z,30.17
2022-08-17T09:40:31.087Z,31.38
2022-08-17T09:43:24.650Z,31.00
2022-08-17T09:46:03.771Z,30.90
2022-08-17T09:48:37.684Z,30.00
2022-08-17T09:51:13.708Z,30.50
2022-08-17T09:53:41.319Z,30.65
2022-08-17T09:56:29.483Z,29.27
2022-08-17T09:59:21.917Z,29.67
2022-08-17T10:02:25.083Z,29.17
2022-08-17T10:04:51.736Z,29.25
2022-08-17T10:07:41.811Z,30.38
2022-08-17T10:10:34.964Z,29.48
2022-08-17T10:13:19.853Z,28.70
2022-08-17T10:16:14.608Z,29.20
2022-08-17T10:19:20.834Z,30.45
2022-08-17T10:22:32.313Z,30.02
2022-08-17T10:25:22.855Z,29.98
2022-08-17T10:27:56.490Z,30.35
2022-08-17T10:30:27.144Z,30.23
2022-08-17T10:33:15.310Z,29.58
2022-08-17T10:36:12.077Z,30.20
2022-08-17T10:39:01.651Z,30.35
2022-08-17T10:41:40.787Z,30.25
2022-08-17T10:44:39.802Z,31.27
2022-08-17T10:47:12.561Z,30.52
2022-08-17T10:49:47.717Z,31.17
2022-08-17T10:52:21.690Z,30.88
2022-08-17T10:55:06.164Z,30.05
2022-08-17T10:58:01.183Z,30.27
2022-08-17T11:00:40.211Z,30.17
2022-08-17T11:03:21.118Z,30.30
2022-08-17T11:06:19.961Z,29.95
2022-08-17T11:09:24.049Z,31.10
2022-08-17T11:12:23.838Z,30.52
2022-08-17T11:15:03.443Z,30.80
2022-08-17T11:17:30.773Z,31.40
2022-08-17T11:20:22.521Z,30.77
2022-08-17T11:23:11.716Z,30.40
2022-08-17T11:25:46.808Z,30.08
2022-08-17T11:28:24.565Z,30.27
2022-08-17T11:30:56.238Z,30.45
2022-08-17T11:33:38.204Z,29.60
2022-08-17T11:36:30.301Z,31.08
2022-08-17T11:39:15.640Z,32.38
2022-08-17T11:41:55.033Z,30.33
2022-08-17T11:44:46.341Z,31.38
2022-08-17T11:48:27.904Z,31.38
2022-08-17T11:51:26.684Z,31.77
2022-08-17T11:54:08.755Z,33.35
2022-08-17T11:56:45.214Z,32.85
2022-08-17T11:59:35.805Z,32.72
2022-08-17T12:02:04.769Z,31.85
2022-08-17T12:04:34.463Z,32.38
2022-08-17T12:07:19.317Z,33.03
2022-08-17T12:09:50.818Z,34.25
2022-08-17T12:12:22.116Z,32.80
2022-08-17T12:15:11.500Z,33.10
2022-08-17T12:17:51.925Z,33.83
2022-08-17T12:20:26.125Z,33.25
2022-08-17T12:23:20.975Z,34.25
2022-08-17T12:25:59.257Z,31.02
2022-08-17T12:28:35.283Z,30.63
2022-08-17T12:31:11.111Z,29.85
2022-08-17T12:33:43.651Z,31.05
2022-08-17T12:36:15.066Z,29.55
2022-08-17T12:38:52.049Z,31.30
2022-08-17T12:41:44.414Z,30.10
2022-08-17T12:44:12.058Z,30.30
2022-08-17T12:46:53.820Z,31.70
2022-08-17T12:49:26.722Z,32.65
2022-08-17T12:52:08.306Z,32.70
2022-08-17T12:54:40.535Z,31.25
2022-08-17T12:57:16.779Z,31.25
2022-08-17T12:59:48.763Z,31.48
2022-08-17T13:02:52.973Z,31.08
2022-08-17T13:05:24.989Z,32.30
2022-08-17T13:07:53.162Z,32.70
2022-08-17T13:10:33.302Z,32.55
2022-08-17T13:13:17.854Z,30.85
2022-08-17T13:15:53.909Z,31.20
2022-08-17T13:18:58.368Z,31.35
2022-08-17T13:21:30.300Z,31.85
2022-08-17T13:24:07.648Z,33.25
2022-08-17T13:26:37.837Z,33.58
2022-08-17T13:29:21.841Z,33.67
2022-08-17T13:31:52.776Z,34.75
2022-08-17T13:37:06.565Z,35.40
2022-08-17T13:39:41.414Z,36.22
2022-08-17T13:42:29.720Z,37.03
2022-08-17T13:44:57.041Z,35.70
2022-08-17T13:47:25.404Z,35.67
2022-08-17T13:49:52.633Z,37.95
2022-08-17T13:52:40.762Z,37.58
2022-08-17T13:55:20.991Z,39.60
2022-08-17T13:58:03.887Z,41.67
2022-08-17T14:00:36.271Z,41.55
2022-08-17T14:03:04.704Z,40.03
2022-08-17T14:05:32.396Z,39.47
2022-08-17T14:08:06.578Z,41.33
2022-08-17T14:10:36.223Z,39.35
2022-08-17T14:13:03.827Z,38.05
2022-08-17T14:15:53.907Z,38.90
2022-08-17T14:18:42.000Z,37.67
2022-08-17T14:21:08.217Z,36.38
2022-08-17T14:23:36.885Z,36.72
2022-08-17T14:26:04.691Z,34.00
2022-08-17T14:28:32.005Z,35.03
2022-08-17T14:31:00.268Z,38.75
2022-08-17T14:33:28.677Z,39.25
2022-08-17T14:35:55.784Z,35.20
2022-08-17T14:38:22.535Z,34.72
2022-08-17T14:40:49.516Z,29.95
2022-08-17T14:43:17.823Z,31.20
2022-08-17T14:45:44.549Z,29.52
2022-08-17T14:48:11.288Z,30.63
2022-08-17T14:50:41.814Z,29.05
2022-08-17T14:53:11.225Z,29.23
2022-08-17T14:55:39.855Z,31.58
2022-08-17T14:58:08.750Z,29.60
2022-08-17T15:00:35.488Z,31.63
2022-08-17T15:03:02.492Z,30.40
2022-08-17T15:05:33.864Z,29.55
2022-08-17T15:08:02.239Z,30.55
2022-08-17T15:10:30.592Z,29.60
2022-08-17T15:12:57.897Z,29.88
2022-08-17T15:15:25.460Z,29.15
2022-08-17T15:17:52.452Z,29.73
2022-08-17T15:20:26.367Z,29.23
2022-08-17T15:22:57.255Z,28.77
2022-08-17T15:25:27.426Z,29.70
2022-08-17T15:27:55.688Z,30.85
2022-08-17T15:30:23.078Z,28.67
2022-08-17T15:32:54.134Z,29.52
2022-08-17T15:35:27.466Z,31.33
2022-08-17T15:38:04.564Z,31.52
2022-08-17T15:40:37.174Z,31.75
2022-08-17T15:43:10.970Z,30.27
2022-08-17T15:45:39.153Z,30.05
2022-08-17T15:48:06.755Z,31.17
2022-08-17T15:50:33.547Z,30.58
2022-08-17T15:53:01.549Z,30.13
2022-08-17T15:55:30.653Z,31.35
2022-08-17T15:57:57.585Z,32.25
2022-08-17T16:00:24.535Z,32.65
2022-08-17T16:03:44.649Z,31.13
2022-08-17T16:05:40.765Z,31.13
2022-08-17T16:08:07.870Z,29.35
2022-08-17T16:10:35.978Z,30.05
2022-08-17T16:13:04.299Z,30.45
2022-08-17T16:15:31.634Z,30.58
2022-08-17T16:17:58.556Z,30.27
2022-08-17T16:20:25.816Z,33.15
2022-08-17T16:22:53.031Z,30.10
2022-08-17T16:25:49.017Z,31.70
2022-08-17T16:28:16.798Z,28.08
2022-08-17T16:30:43.992Z,28.70
2022-08-17T16:33:11.507Z,30.30
2022-08-17T16:35:38.861Z,29.48
2022-08-17T16:38:07.092Z,29.67
2022-08-17T16:40:35.847Z,29.40
2022-08-17T16:43:10.248Z,29.92
2022-08-17T16:45:40.080Z,30.17
2022-08-17T16:48:08.146Z,29.10
2022-08-17T16:50:35.881Z,30.40
2022-08-17T16:53:16.110Z,30.88
2022-08-17T16:55:44.534Z,29.33
2022-08-17T16:58:11.688Z,30.63
2022-08-17T17:00:38.939Z,31.38
2022-08-17T17:03:24.680Z,31.55
2022-08-17T17:05:57.646Z,31.35
2022-08-17T17:08:46.546Z,30.55
2022-08-17T17:11:21.534Z,30.48
2022-08-17T17:13:58.324Z,29.95
2022-08-17T17:16:52.497Z,30.67
2022-08-17T17:19:35.258Z,33.47
2022-08-17T17:22:08.147Z,29.70
2022-08-17T17:25:03.764Z,31.73
2022-08-17T17:30:32.987Z,28.40
2022-08-17T17:33:23.406Z,28.50
2022-08-17T17:36:04.631Z,27.40
2022-08-17T17:38:47.348Z,29.02
2022-08-17T17:41:29.328Z,28.83
2022-08-17T17:44:07.931Z,28.92
2022-08-17T17:46:43.086Z,28.30
2022-08-17T17:49:14.183Z,28.70
2022-08-17T17:52:08.692Z,28.50
2022-08-17T17:54:49.243Z,28.20
2022-08-17T17:57:55.813Z,28.90
2022-08-17T18:00:29.324Z,28.52
2022-08-17T18:03:15.022Z,28.88
2022-08-17T18:05:48.515Z,28.75
2022-08-17T18:08:37.101Z,29.65
2022-08-17T18:11:13.524Z,29.73
2022-08-17T18:14:14.731Z,28.73
2022-08-17T18:16:43.360Z,28.48
2022-08-17T18:19:23.831Z,28.73
2022-08-17T18:22:02.588Z,28.42
2022-08-17T18:24:35.962Z,29.35
2022-08-17T18:27:27.735Z,29.27
2022-08-17T18:29:56.738Z,25.75
2022-08-17T18:32:36.267Z,25.65
2022-08-17T18:35:09.389Z,24.95
2022-08-17T18:37:55.307Z,25.48
2022-08-17T18:40:36.529Z,26.48
2022-08-17T18:43:43.987Z,27.33
2022-08-17T18:46:34.981Z,26.60
2022-08-17T18:49:05.159Z,26.98
2022-08-17T18:51:42.857Z,30.25
2022-08-17T18:54:18.855Z,29.55
2022-08-17T18:56:51.841Z,31.13
2022-08-17T18:59:45.441Z,33.22
2022-08-17T19:02:20.647Z,35.00
2022-08-17T19:05:24.773Z,35.28
2022-08-17T19:07:51.680Z,36.95
2022-08-17T19:10:46.891Z,37.05
2022-08-17T19:13:24.065Z,37.97
2022-08-17T19:16:13.916Z,38.05
2022-08-17T19:18:48.491Z,39.35
2022-08-17T19:21:16.824Z,43.55
2022-08-17T19:24:04.972Z,39.25
2022-08-17T19:26:54.201Z,42.75
2022-08-17T19:29:53.595Z,42.40
2022-08-17T19:32:24.764Z,42.90
2022-08-17T19:34:52.175Z,42.17
2022-08-17T19:37:44.101Z,44.45
2022-08-17T19:43:34.605Z,43.65
2022-08-17T19:46:19.579Z,44.50
2022-08-17T19:51:31.486Z,44.72
2022-08-17T19:54:06.782Z,48.78
2022-08-17T19:56:55.338Z,42.85
2022-08-17T19:59:24.751Z,43.45
2022-08-17T20:01:53.169Z,47.15
2022-08-17T20:04:31.748Z,44.97
2022-08-17T20:07:08.119Z,45.10
2022-08-17T20:09:42.561Z,44.92
2022-08-17T20:12:23.459Z,49.20
2022-08-17T20:14:57.240Z,46.05
2022-08-17T20:17:37.110Z,48.72
2022-08-17T20:20:19.288Z,46.13
2022-08-17T20:23:04.598Z,45.28
2022-08-17T20:25:55.921Z,45.20
2022-08-17T20:28:34.273Z,44.38
2022-08-17T20:31:02.411Z,48.42
2022-08-17T20:33:36.830Z,49.08
2022-08-17T20:36:15.681Z,50.92
2022-08-17T20:38:44.118Z,50.83
2022-08-17T20:41:23.201Z,52.90
2022-08-17T20:43:57.429Z,54.42
2022-08-17T20:46:36.408Z,57.05
2022-08-17T20:49:14.594Z,55.95
2022-08-17T20:51:54.569Z,55.53
2022-08-17T20:54:46.495Z,57.67
2022-08-17T20:57:31.731Z,56.15
2022-08-17T20:59:58.425Z,59.53
2022-08-17T21:02:26.660Z,65.22
2022-08-17T21:04:54.218Z,62.38
2022-08-17T21:07:42.774Z,61.58
2022-08-17T21:10:19.321Z,59.35
2022-08-17T21:12:53.539Z,59.80
2022-08-17T21:15:23.047Z,66.25
2022-08-17T21:18:06.992Z,64.00
2022-08-17T21:21:06.539Z,68.30
2022-08-17T21:24:00.159Z,64.68
2022-08-17T21:26:56.630Z,66.78
2022-08-17T21:29:31.827Z,71.68
2022-08-17T21:31:59.383Z,68.25
2022-08-17T21:34:36.746Z,72.63
2022-08-17T21:37:40.629Z,74.97
2022-08-17T21:40:10.154Z,77.53
2022-08-17T21:42:58.037Z,73.43
2022-08-17T21:45:27.975Z,71.93
2022-08-17T21:48:19.484Z,64.35
2022-08-17T21:51:22.823Z,68.60
2022-08-17T21:53:52.777Z,74.38
2022-08-17T21:56:25.323Z,81.78
2022-08-17T21:59:02.736Z,93.47
2022-08-17T22:01:34.526Z,94.80
2022-08-17T22:04:25.563Z,89.43
2022-08-17T22:06:57.659Z,93.45
2022-08-17T22:09:29.942Z,88.55
2022-08-17T22:12:07.641Z,88.23
2022-08-17T22:14:51.443Z,88.85
2022-08-17T22:17:23.233Z,90.85
2022-08-17T22:19:52.750Z,95.57
2022-08-17T22:22:30.714Z,99.88
2022-08-17T22:25:03.973Z,94.47
2022-08-17T22:28:04.004Z,89.05
2022-08-17T22:30:41.119Z,92.75
2022-08-17T22:33:33.172Z,95.05
2022-08-17T22:36:22.878Z,95.88
2022-08-17T22:38:55.383Z,93.05
2022-08-17T22:41:41.033Z,99.20
2022-08-17T22:44:37.545Z,102.18
2022-08-17T22:47:19.529Z,103.55
2022-08-17T22:49:53.418Z,103.72
2022-08-17T22:52:32.387Z,104.05
2022-08-17T22:55:25.997Z,104.63
2022-08-17T22:58:11.820Z,106.82
2022-08-17T23:00:48.070Z,107.75
2022-08-17T23:03:24.519Z,109.75
2022-08-17T23:06:11.052Z,104.70
2022-08-17T23:08:59.492Z,107.93
2022-08-17T23:11:36.875Z,103.45
2022-08-17T23:14:18.965Z,105.90
2022-08-17T23:16:46.097Z,109.00
2022-08-17T23:19:15.367Z,112.65
2022-08-17T23:21:44.700Z,109.95
2022-08-17T23:24:17.047Z,110.85
2022-08-17T23:26:43.800Z,113.88
2022-08-17T23:29:10.551Z,118.95
2022-08-17T23:31:38.632Z,118.07
2022-08-17T23:34:11.086Z,110.13
2022-08-17T23:36:38.140Z,113.78
2022-08-17T23:39:05.489Z,119.82
2022-08-17T23:41:35.767Z,126.35
2022-08-17T23:44:05.775Z,122.32
2022-08-17T23:46:32.633Z,127.80
2022-08-17T23:48:59.404Z,116.82
2022-08-17T23:51:30.740Z,127.32
2022-08-17T23:54:08.202Z,128.60
2022-08-17T23:56:44.313Z,126.95
2022-08-17T23:59:11.247Z,129.68
